West Amherst, New York
Current Conditions -  °F | °C
As of 8:54 PM on Friday 21 Nov 2014 (Local Time) from KBUF Reporting Station
Light Snow Light Snow  
Wind Chill: 15°   Ceiling: 2400
Heat Index: 25°   Visibility: 9mi
Dew Point: 16°   Wind: 10mph
Humidity: 69%   Direction: 210°SSW
Pressure: 30.4"   Gusts: NA
Location:  43.0432°N, 78.7829°W
Report Text: KBUF 220154Z 21009KT 9SM -SN OVC024 M04/M09 A3040 RMK AO2 SLP308 P0000 T10391089
Loading
Personal Weather Stations






























Interactive Weather Map New forecast layout! Learn more

10-Day Weather Forecast

Advertisements
Track Severe Weather on mobile